Time;durP1;ratioP1;P1;durP2;ratioP2;P2;SDS_P1;SDS_P2;PMS_P1;PMS_P2;Temp;Humidity;BMP_temperature;BMP_pressure;BME280_temperature;BME280_humidity;BME280_pressure;Samples;Min_cycle;Max_cycle;Signal;HPM_P1;HPM_P2
2020/12/24 00:00:21;;;;;;;8.82;7.53;;;;;;;7.97;100.00;95390.53;1034795;28;20570;-70
2020/12/24 00:00:52;;;;;;;8.48;7.18;;;;;;;8.01;100.00;95396.81;1030722;28;20034;-67
2020/12/24 00:01:22;;;;;;;10.57;7.90;;;;;;;8.01;100.00;95404.66;1034076;28;20046;-69
2020/12/24 00:01:53;;;;;;;13.13;10.02;;;;;;;8.03;100.00;95405.22;1030790;28;20080;-69
2020/12/24 00:02:23;;;;;;;13.50;9.63;;;;;;;7.95;100.00;95395.25;1030594;28;20034;-67
2020/12/24 00:02:54;;;;;;;12.13;8.52;;;;;;;8.01;100.00;95397.63;1030870;28;20042;-66
2020/12/24 00:03:24;;;;;;;10.15;8.25;;;;;;;8.01;100.00;95396.81;1022320;28;20070;-71
2020/12/24 00:03:54;;;;;;;8.68;7.78;;;;;;;8.02;100.00;95398.41;1026733;28;20467;-70
2020/12/24 00:04:25;;;;;;;8.15;6.80;;;;;;;8.08;100.00;95400.03;1026667;28;20034;-68
2020/12/24 00:04:55;;;;;;;8.50;7.18;;;;;;;8.07;100.00;95395.81;1024152;28;20038;-67
2020/12/24 00:05:26;;;;;;;8.63;7.70;;;;;;;8.07;100.00;95390.59;1030751;28;20033;-69
2020/12/24 00:05:56;;;;;;;16.63;10.43;;;;;;;8.04;100.00;95385.88;1026799;28;20023;-72
2020/12/24 00:06:27;;;;;;;9.55;7.90;;;;;;;8.08;100.00;95396.59;1026773;28;20031;-70
2020/12/24 00:06:57;;;;;;;8.50;7.25;;;;;;;8.08;100.00;95401.81;1027004;28;20440;-67
2020/12/24 00:07:28;;;;;;;9.02;8.10;;;;;;;8.09;100.00;95392.97;1026739;28;20038;-69
2020/12/24 00:07:59;;;;;;;12.10;9.65;;;;;;;8.11;100.00;95396.88;1026709;28;20035;-67
2020/12/24 00:08:30;;;;;;;11.93;8.98;;;;;;;8.11;100.00;95406.53;1026983;28;20030;-70
2020/12/24 00:09:00;;;;;;;11.15;8.90;;;;;;;8.11;100.00;95409.16;1029873;28;20800;-69
2020/12/24 00:09:31;;;;;;;14.75;9.30;;;;;;;8.13;100.00;95409.69;1031078;28;20030;-70
2020/12/24 00:10:02;;;;;;;9.80;8.20;;;;;;;8.15;100.00;95413.63;1035182;28;20490;-69
2020/12/24 00:10:32;;;;;;;14.50;10.38;;;;;;;8.12;100.00;95408.91;1030748;28;20061;-68
2020/12/24 00:11:03;;;;;;;13.02;10.82;;;;;;;8.11;100.00;95412.56;1026511;28;20073;-71
2020/12/24 00:11:34;;;;;;;9.68;8.48;;;;;;;8.09;100.00;95403.41;1022857;29;20159;-69
2020/12/24 00:12:04;;;;;;;14.43;11.80;;;;;;;8.09;100.00;95414.66;1023032;28;20027;-67
2020/12/24 00:12:34;;;;;;;11.98;9.73;;;;;;;8.08;100.00;95415.69;1022458;28;20031;-71
2020/12/24 00:13:05;;;;;;;10.48;7.85;;;;;;;8.08;100.00;95418.31;1026903;28;20283;-66
2020/12/24 00:13:35;;;;;;;9.75;7.63;;;;;;;8.03;100.00;95406.00;1030969;28;21068;-70
2020/12/24 00:14:06;;;;;;;11.40;8.77;;;;;;;7.94;100.00;95397.06;1018794;29;20031;-70
2020/12/24 00:14:36;;;;;;;10.50;7.63;;;;;;;8.11;100.00;95423.00;1017859;29;20131;-71
2020/12/24 00:15:07;;;;;;;8.65;7.18;;;;;;;8.08;100.00;95420.94;1015109;29;20471;-72
2020/12/24 00:15:38;;;;;;;16.35;10.57;;;;;;;8.09;100.00;95419.88;1019068;28;20035;-66
2020/12/24 00:16:08;;;;;;;10.00;8.30;;;;;;;8.08;100.00;95418.31;1029228;28;20030;-67
2020/12/24 00:16:39;;;;;;;15.88;11.32;;;;;;;8.08;100.00;95426.16;1030657;28;20038;-69
2020/12/24 00:17:09;;;;;;;6.20;5.10;;;;;;;8.10;100.00;95426.66;1026903;28;20070;-70
2020/12/24 00:17:41;;;;;;;9.15;6.65;;;;;;;8.11;100.00;95414.38;1030428;28;20034;-70
2020/12/24 00:18:12;;;;;;;5.97;5.45;;;;;;;8.12;100.00;95421.97;1031148;28;20627;-67
2020/12/24 00:18:42;;;;;;;8.13;6.97;;;;;;;8.10;100.00;95418.81;1034230;28;20284;-68
2020/12/24 00:19:13;;;;;;;8.00;6.53;;;;;;;8.11;100.00;95417.00;1038453;28;20099;-67
2020/12/24 00:19:43;;;;;;;9.60;7.30;;;;;;;8.10;100.00;95425.88;1038841;28;20036;-73
2020/12/24 00:20:14;;;;;;;7.00;4.95;;;;;;;8.06;100.00;95412.53;1034771;28;20499;-68
2020/12/24 00:20:44;;;;;;;10.35;6.30;;;;;;;8.07;100.00;95416.72;1026418;28;20038;-66
2020/12/24 00:21:15;;;;;;;9.43;6.70;;;;;;;8.07;100.00;95416.72;1026327;28;20058;-68
2020/12/24 00:21:45;;;;;;;5.75;4.95;;;;;;;8.06;100.00;95423.00;1015667;29;20576;-70
2020/12/24 00:22:16;;;;;;;5.50;5.00;;;;;;;8.00;100.00;95410.94;1018920;28;20056;-69
2020/12/24 00:22:46;;;;;;;8.55;6.55;;;;;;;8.03;100.00;95410.44;1022293;29;20031;-68
2020/12/24 00:23:17;;;;;;;9.85;6.95;;;;;;;8.04;100.00;95431.06;1022893;28;20137;-68
2020/12/24 00:23:47;;;;;;;10.55;8.23;;;;;;;8.02;100.00;95430.56;1022744;28;20050;-72
2020/12/24 00:24:18;;;;;;;10.02;8.05;;;;;;;8.03;100.00;95431.34;1026939;28;20026;-68
2020/12/24 00:24:48;;;;;;;9.75;8.13;;;;;;;8.03;100.00;95420.88;1034660;28;20553;-68
2020/12/24 00:25:19;;;;;;;12.82;9.27;;;;;;;7.91;100.00;95404.63;1034795;28;20068;-69
2020/12/24 00:25:49;;;;;;;11.95;8.80;;;;;;;8.02;100.00;95420.09;1034572;28;20044;-68
2020/12/24 00:26:20;;;;;;;7.45;6.65;;;;;;;8.02;100.00;95417.50;1028728;28;20550;-68
2020/12/24 00:26:50;;;;;;;11.90;8.23;;;;;;;8.01;100.00;95415.13;1029466;28;20034;-66
2020/12/24 00:27:20;;;;;;;14.43;10.43;;;;;;;8.02;100.00;95414.88;1026260;28;20042;-70
2020/12/24 00:27:51;;;;;;;11.68;9.52;;;;;;;7.96;100.00;95404.66;1026768;28;20038;-67
2020/12/24 00:28:21;;;;;;;9.68;8.50;;;;;;;8.05;100.00;95413.59;1022715;29;20035;-69
2020/12/24 00:28:52;;;;;;;10.98;8.93;;;;;;;8.02;100.00;95416.72;1022257;28;20038;-68
2020/12/24 00:29:22;;;;;;;6.35;5.72;;;;;;;8.00;100.00;95410.94;1026538;28;20436;-66
2020/12/24 00:29:53;;;;;;;6.20;5.60;;;;;;;7.93;100.00;95395.50;1026654;28;20042;-66
2020/12/24 00:30:23;;;;;;;9.45;7.50;;;;;;;7.98;100.00;95413.00;1026968;28;20042;-72
2020/12/24 00:30:54;;;;;;;10.93;6.93;;;;;;;7.98;100.00;95410.41;1034304;28;20419;-68
2020/12/24 00:31:24;;;;;;;12.60;7.97;;;;;;;7.94;100.00;95398.88;1030580;28;20096;-69
2020/12/24 00:31:55;;;;;;;14.25;9.20;;;;;;;7.88;100.00;95395.47;1026842;28;20061;-69
2020/12/24 00:32:25;;;;;;;5.72;3.50;;;;;;;7.93;100.00;95410.38;1020086;29;20109;-71
2020/12/24 00:32:56;;;;;;;6.38;3.67;;;;;;;7.91;100.00;95413.22;1018803;29;20039;-69
2020/12/24 00:33:26;;;;;;;5.70;3.38;;;;;;;7.92;100.00;95411.44;1018712;29;20035;-69
2020/12/24 00:33:57;;;;;;;3.97;3.03;;;;;;;7.90;100.00;95400.44;1018575;29;20024;-68
2020/12/24 00:34:27;;;;;;;4.32;3.60;;;;;;;7.89;100.00;95401.50;1023266;28;20023;-70
2020/12/24 00:34:58;;;;;;;7.78;4.57;;;;;;;7.79;100.00;95395.16;1034701;28;20069;-66
2020/12/24 00:35:28;;;;;;;4.22;3.00;;;;;;;7.72;100.00;95383.38;1030645;28;20034;-68
2020/12/24 00:35:59;;;;;;;5.60;3.35;;;;;;;7.85;100.00;95403.03;1027965;28;20038;-68
2020/12/24 00:36:30;;;;;;;2.55;2.00;;;;;;;7.75;100.00;95388.09;1028533;28;20031;-67
2020/12/24 00:37:00;;;;;;;5.38;2.90;;;;;;;7.80;100.00;95404.56;1026887;28;20056;-68
2020/12/24 00:37:31;;;;;;;4.63;3.22;;;;;;;7.77;100.00;95407.69;1030334;28;20035;-69
2020/12/24 00:38:01;;;;;;;2.88;2.58;;;;;;;7.79;100.00;95405.59;1026581;28;20018;-70
2020/12/24 00:38:32;;;;;;;3.63;2.40;;;;;;;7.78;100.00;95409.28;1026779;28;20031;-66
2020/12/24 00:39:03;;;;;;;3.10;2.50;;;;;;;7.69;100.00;95400.31;1026011;28;20473;-65
2020/12/24 00:39:33;;;;;;;2.08;1.90;;;;;;;7.78;100.00;95408.50;1022445;29;20039;-68
2020/12/24 00:40:04;;;;;;;3.47;2.40;;;;;;;7.69;100.00;95397.72;1021703;28;20027;-73
2020/12/24 00:40:34;;;;;;;3.60;2.50;;;;;;;7.75;100.00;95409.78;1018850;29;20508;-66
2020/12/24 00:41:06;;;;;;;4.53;2.75;;;;;;;7.66;100.00;95400.81;1018539;29;20039;-69
2020/12/24 00:41:37;;;;;;;6.95;2.88;;;;;;;7.71;100.00;95406.09;1020561;29;20525;-66
2020/12/24 00:42:07;;;;;;;4.05;2.67;;;;;;;7.74;100.00;95408.19;1022714;29;20352;-68
2020/12/24 00:42:37;;;;;;;6.30;2.80;;;;;;;7.68;100.00;95401.38;1018571;28;20070;-66
2020/12/24 00:43:08;;;;;;;2.50;2.30;;;;;;;7.73;100.00;95417.06;1011398;29;20036;-69
2020/12/24 00:43:38;;;;;;;2.83;2.50;;;;;;;7.73;100.00;95414.44;1010872;29;20037;-70
2020/12/24 00:44:09;;;;;;;3.20;2.90;;;;;;;7.70;100.00;95412.34;1014792;29;20503;-68
2020/12/24 00:44:39;;;;;;;3.38;2.97;;;;;;;7.73;100.00;95417.06;1021549;29;20034;-68
2020/12/24 00:45:10;;;;;;;4.50;3.20;;;;;;;7.72;100.00;95420.72;1022782;28;20422;-69
2020/12/24 00:45:40;;;;;;;5.00;2.90;;;;;;;7.68;100.00;95411.81;1030538;28;20076;-68
2020/12/24 00:46:11;;;;;;;5.50;2.63;;;;;;;7.71;100.00;95421.75;1025911;28;20130;-70
2020/12/24 00:46:41;;;;;;;4.57;2.92;;;;;;;7.70;100.00;95416.78;1028935;28;20104;-70
2020/12/24 00:47:12;;;;;;;2.58;2.38;;;;;;;7.69;100.00;95416.00;1026714;28;20547;-68
2020/12/24 00:47:42;;;;;;;3.78;2.70;;;;;;;7.70;100.00;95409.72;1027027;28;20035;-71
2020/12/24 00:48:13;;;;;;;2.72;2.42;;;;;;;7.71;100.00;95413.94;1038591;28;20056;-68
2020/12/24 00:48:43;;;;;;;4.43;2.80;;;;;;;7.69;100.00;95413.38;1029943;28;20034;-70
2020/12/24 00:49:14;;;;;;;3.85;2.47;;;;;;;7.63;100.00;95400.53;1026503;28;20416;-66
2020/12/24 00:49:44;;;;;;;3.85;2.25;;;;;;;7.70;100.00;95412.34;1023707;28;20111;-68
2020/12/24 00:50:15;;;;;;;2.53;2.10;;;;;;;7.69;100.00;95408.16;1023230;28;20425;-68
2020/12/24 00:50:45;;;;;;;2.35;2.15;;;;;;;7.68;100.00;95411.00;1022596;29;20027;-69
2020/12/24 00:51:16;;;;;;;4.30;2.40;;;;;;;7.60;100.00;95401.03;1024223;28;20027;-70
2020/12/24 00:51:46;;;;;;;4.75;3.05;;;;;;;7.57;100.00;95407.56;1022597;28;20075;-69
2020/12/24 00:52:17;;;;;;;3.65;2.80;;;;;;;7.65;100.00;95425.38;1022469;29;20038;-68
2020/12/24 00:52:47;;;;;;;3.22;2.90;;;;;;;7.62;100.00;95419.88;1022750;28;20027;-67
2020/12/24 00:53:18;;;;;;;3.30;2.35;;;;;;;7.66;100.00;95419.09;1022549;29;20035;-69
2020/12/24 00:53:48;;;;;;;3.65;2.58;;;;;;;7.65;100.00;95419.38;1018953;28;20079;-70
2020/12/24 00:54:19;;;;;;;6.28;3.22;;;;;;;7.63;100.00;95413.59;1022408;29;20062;-68
2020/12/24 00:54:49;;;;;;;2.80;2.42;;;;;;;7.66;100.00;95416.50;1025614;28;20019;-68
2020/12/24 00:55:20;;;;;;;3.58;2.28;;;;;;;7.57;100.00;95404.94;1022511;29;20023;-67
2020/12/24 00:55:50;;;;;;;3.38;2.42;;;;;;;7.63;100.00;95405.78;1022657;29;20067;-69
2020/12/24 00:56:21;;;;;;;2.95;2.50;;;;;;;7.64;100.00;95408.13;1022266;28;20023;-69
2020/12/24 00:56:51;;;;;;;2.88;2.25;;;;;;;7.64;100.00;95405.50;1026105;28;20023;-70
2020/12/24 00:57:21;;;;;;;2.35;2.13;;;;;;;7.63;100.00;95406.56;1022861;28;20034;-69
2020/12/24 00:57:52;;;;;;;3.80;2.47;;;;;;;7.64;100.00;95405.50;1026656;28;20493;-67
2020/12/24 00:58:22;;;;;;;2.67;2.25;;;;;;;7.67;100.00;95399.78;1022423;28;20027;-69
2020/12/24 00:58:53;;;;;;;3.42;2.78;;;;;;;7.69;100.00;95394.31;1026023;28;20492;-69
2020/12/24 00:59:24;;;;;;;5.00;3.25;;;;;;;7.66;100.00;95400.81;1022671;28;20051;-67
2020/12/24 00:59:54;;;;;;;4.90;3.38;;;;;;;7.66;100.00;95400.81;1022802;28;20050;-70
2020/12/24 01:00:25;;;;;;;4.85;2.35;;;;;;;7.66;100.00;95405.28;1027915;28;20413;-68
2020/12/24 01:00:55;;;;;;;6.47;2.97;;;;;;;7.66;100.00;95400.81;1030701;28;20019;-70
2020/12/24 01:01:26;;;;;;;3.85;2.97;;;;;;;7.67;100.00;95406.84;1034659;28;20026;-68
2020/12/24 01:01:56;;;;;;;5.53;2.22;;;;;;;7.59;100.00;95395.03;1034204;28;20070;-69
2020/12/24 01:02:27;;;;;;;4.72;2.53;;;;;;;7.64;100.00;95402.91;1030533;28;20085;-69
2020/12/24 01:02:57;;;;;;;7.97;2.58;;;;;;;7.65;100.00;95409.72;1030762;28;20057;-66
2020/12/24 01:03:27;;;;;;;2.67;1.98;;;;;;;7.66;100.00;95405.28;1022798;28;20035;-67
2020/12/24 01:03:58;;;;;;;3.22;2.22;;;;;;;7.66;100.00;95406.06;1026418;28;20404;-67
2020/12/24 01:04:28;;;;;;;5.95;2.80;;;;;;;7.63;100.00;95409.16;1030605;28;20026;-70
2020/12/24 01:04:59;;;;;;;3.03;2.72;;;;;;;7.66;100.00;95410.50;1030587;28;20328;-70
2020/12/24 01:05:31;;;;;;;4.22;2.80;;;;;;;7.65;100.00;95409.72;1034175;28;20026;-69
2020/12/24 01:06:01;;;;;;;4.22;3.15;;;;;;;7.56;100.00;95390.31;1026603;28;20461;-68
2020/12/24 01:06:32;;;;;;;2.65;2.42;;;;;;;7.68;100.00;95403.19;1026482;28;20309;-70
2020/12/24 01:07:02;;;;;;;6.90;2.50;;;;;;;7.66;100.00;95411.28;1022669;28;20620;-67
2020/12/24 01:07:33;;;;;;;4.63;2.63;;;;;;;7.66;100.00;95411.28;1022656;28;20031;-69
2020/12/24 01:08:03;;;;;;;4.38;2.83;;;;;;;7.65;100.00;95409.72;1026624;28;20019;-68
2020/12/24 01:08:34;;;;;;;4.07;2.92;;;;;;;7.65;100.00;95414.94;1026679;28;20027;-67
2020/12/24 01:09:04;;;;;;;2.67;2.13;;;;;;;7.67;100.00;95412.06;1021212;28;20030;-69
2020/12/24 01:09:35;;;;;;;2.10;1.88;;;;;;;7.66;100.00;95407.88;1026649;28;20090;-70
2020/12/24 01:10:08;;;;;;;3.42;2.55;;;;;;;7.64;100.00;95409.94;1026628;28;20027;-68
2020/12/24 01:10:39;;;;;;;2.78;2.35;;;;;;;7.65;100.00;95407.09;1024235;28;20085;-69
2020/12/24 01:11:09;;;;;;;3.83;2.15;;;;;;;7.60;100.00;95396.59;1030679;28;20348;-68
2020/12/24 01:11:39;;;;;;;2.15;1.77;;;;;;;7.60;100.00;95395.81;1030584;28;20018;-67
2020/12/24 01:12:10;;;;;;;3.80;1.50;;;;;;;7.54;100.00;95395.00;1030207;28;20026;-68
2020/12/24 01:12:40;;;;;;;2.03;1.63;;;;;;;7.62;100.00;95405.00;1030788;28;20491;-67
2020/12/24 01:13:11;;;;;;;3.30;2.13;;;;;;;7.60;100.00;95407.06;1026643;28;20027;-70
2020/12/24 01:13:41;;;;;;;2.60;1.70;;;;;;;7.61;100.00;95403.41;1026649;28;20022;-67
2020/12/24 01:14:12;;;;;;;3.28;1.88;;;;;;;7.55;100.00;95393.97;1030322;28;20033;-69
2020/12/24 01:14:43;;;;;;;2.50;1.85;;;;;;;7.55;100.00;95399.19;1022664;28;20030;-69
2020/12/24 01:15:13;;;;;;;4.47;1.92;;;;;;;7.59;100.00;95402.09;1022390;29;20484;-69
2020/12/24 01:15:44;;;;;;;4.47;2.38;;;;;;;7.60;100.00;95401.84;1018221;28;20310;-66
2020/12/24 01:16:14;;;;;;;3.45;1.90;;;;;;;7.59;100.00;95410.72;1018854;29;20032;-67
2020/12/24 01:16:45;;;;;;;3.20;1.58;;;;;;;7.58;100.00;95409.16;1018844;28;20032;-70
2020/12/24 01:17:15;;;;;;;1.95;1.30;;;;;;;7.53;100.00;95393.44;1025960;28;20026;-68
2020/12/24 01:17:46;;;;;;;4.45;2.05;;;;;;;7.51;100.00;95398.09;1026598;28;20567;-68
2020/12/24 01:18:16;;;;;;;3.47;2.03;;;;;;;7.52;100.00;95397.09;1018659;29;20042;-74
2020/12/24 01:18:47;;;;;;;2.53;1.83;;;;;;;7.59;100.00;95404.72;1018128;29;20127;-70
2020/12/24 01:19:17;;;;;;;5.43;2.13;;;;;;;7.55;100.00;95405.22;1017152;29;20090;-68
2020/12/24 01:19:48;;;;;;;3.47;1.83;;;;;;;7.56;100.00;95409.38;1022805;28;20396;-66
2020/12/24 01:20:18;;;;;;;2.15;1.63;;;;;;;7.55;100.00;95407.03;1030622;28;20030;-68
2020/12/24 01:20:49;;;;;;;4.50;1.67;;;;;;;7.54;100.00;95410.66;1032699;28;20026;-67
2020/12/24 01:21:19;;;;;;;5.78;2.13;;;;;;;7.49;100.00;95398.38;1034455;28;20133;-69
2020/12/24 01:21:49;;;;;;;3.65;1.60;;;;;;;7.54;100.00;95403.66;1034654;28;20026;-67
2020/12/24 01:22:20;;;;;;;1.70;1.30;;;;;;;7.46;100.00;95379.81;1034443;28;20030;-66
2020/12/24 01:22:50;;;;;;;1.70;1.40;;;;;;;7.52;100.00;95405.72;1034714;28;20028;-68
2020/12/24 01:23:21;;;;;;;1.63;1.48;;;;;;;7.54;100.00;95413.28;1034374;28;20088;-69
2020/12/24 01:23:51;;;;;;;1.88;1.50;;;;;;;7.52;100.00;95403.09;1034793;28;20053;-68
2020/12/24 01:24:22;;;;;;;2.58;1.15;;;;;;;7.52;100.00;95404.94;1033932;28;20034;-68
2020/12/24 01:24:52;;;;;;;3.92;1.67;;;;;;;7.48;100.00;95404.63;1030668;28;20037;-69
2020/12/24 01:25:23;;;;;;;2.42;1.48;;;;;;;7.32;100.00;95379.47;1022278;29;20031;-70
2020/12/24 01:25:53;;;;;;;1.90;1.42;;;;;;;7.51;100.00;95413.78;1018264;29;20508;-70
2020/12/24 01:26:24;;;;;;;3.65;1.65;;;;;;;7.48;100.00;95409.84;1022689;28;20030;-67
2020/12/24 01:26:54;;;;;;;3.20;1.63;;;;;;;7.47;100.00;95408.25;1026727;28;20099;-65
2020/12/24 01:27:24;;;;;;;2.25;1.20;;;;;;;7.49;100.00;95413.25;1030108;28;20482;-68
2020/12/24 01:27:55;;;;;;;2.13;1.25;;;;;;;7.48;100.00;95414.28;1026024;28;20046;-67
2020/12/24 01:28:25;;;;;;;6.28;1.40;;;;;;;7.40;100.00;95405.09;1026483;28;20105;-68
2020/12/24 01:28:56;;;;;;;1.95;1.20;;;;;;;7.49;100.00;95421.09;1027533;28;20135;-68
2020/12/24 01:29:26;;;;;;;4.55;1.45;;;;;;;7.47;100.00;95421.31;1027189;28;20125;-69
2020/12/24 01:29:57;;;;;;;2.00;1.25;;;;;;;7.45;100.00;95420.03;1026337;28;20023;-67
2020/12/24 01:30:27;;;;;;;2.28;1.27;;;;;;;7.48;100.00;95424.75;1014699;29;20450;-68
2020/12/24 01:30:58;;;;;;;2.50;1.50;;;;;;;7.47;100.00;95423.94;1018410;29;20024;-67
2020/12/24 01:31:28;;;;;;;3.20;1.77;;;;;;;7.45;100.00;95425.25;1022541;28;20035;-68
2020/12/24 01:31:59;;;;;;;2.65;1.65;;;;;;;7.44;100.00;95418.41;1022748;28;20528;-66
2020/12/24 01:32:29;;;;;;;1.85;1.55;;;;;;;7.35;100.00;95406.91;1033968;28;20037;-69
2020/12/24 01:32:59;;;;;;;3.15;1.27;;;;;;;7.44;100.00;95421.03;1022608;28;20082;-70
2020/12/24 01:33:30;;;;;;;1.98;1.25;;;;;;;7.33;100.00;95401.91;1022687;28;20472;-66
2020/12/24 01:34:00;;;;;;;4.13;1.52;;;;;;;7.37;100.00;95405.59;1026988;28;20023;-71
2020/12/24 01:34:31;;;;;;;1.75;1.30;;;;;;;7.44;100.00;95418.41;1028114;28;20121;-69
2020/12/24 01:35:01;;;;;;;2.00;1.55;;;;;;;7.36;100.00;95401.41;1022496;29;20445;-70
2020/12/24 01:35:32;;;;;;;1.55;1.20;;;;;;;7.43;100.00;95407.19;1018612;29;20058;-67
2020/12/24 01:36:02;;;;;;;1.75;1.30;;;;;;;7.43;100.00;95411.63;1021887;28;20027;-68
2020/12/24 01:36:33;;;;;;;1.45;1.17;;;;;;;7.43;100.00;95411.63;1026733;28;20397;-65
2020/12/24 01:37:03;;;;;;;1.17;1.08;;;;;;;7.35;100.00;95399.06;1026427;28;20456;-71
2020/12/24 01:37:34;;;;;;;3.22;1.40;;;;;;;7.42;100.00;95410.84;1022451;29;20157;-68
2020/12/24 01:38:04;;;;;;;2.22;1.10;;;;;;;7.42;100.00;95402.25;1022101;29;20027;-67
2020/12/24 01:38:35;;;;;;;2.90;1.25;;;;;;;7.42;100.00;95410.84;1022724;28;20472;-68
2020/12/24 01:39:05;;;;;;;1.50;1.20;;;;;;;7.38;100.00;95403.75;1028242;28;20026;-71
2020/12/24 01:39:36;;;;;;;2.80;1.20;;;;;;;7.43;100.00;95412.41;1028584;28;20074;-68
2020/12/24 01:40:06;;;;;;;2.70;1.00;;;;;;;7.37;100.00;95396.97;1022525;29;20121;-69
2020/12/24 01:40:37;;;;;;;3.28;1.65;;;;;;;7.39;100.00;95405.34;1022391;29;20720;-68
2020/12/24 01:41:07;;;;;;;3.45;1.50;;;;;;;7.41;100.00;95408.47;1018290;29;20039;-68
2020/12/24 01:41:38;;;;;;;2.75;1.20;;;;;;;7.41;100.00;95405.88;1018832;28;20035;-69
2020/12/24 01:42:09;;;;;;;2.30;1.45;;;;;;;7.37;100.00;95404.81;1018478;29;20046;-69
2020/12/24 01:42:39;;;;;;;1.77;1.20;;;;;;;7.35;100.00;95399.06;1018492;29;20267;-69
2020/12/24 01:43:10;;;;;;;2.50;1.13;;;;;;;7.41;100.00;95413.69;1014964;29;20036;-70
2020/12/24 01:43:40;;;;;;;2.55;1.20;;;;;;;7.29;100.00;95393.78;1014928;29;20024;-67
2020/12/24 01:44:11;;;;;;;2.67;1.42;;;;;;;7.36;100.00;95406.63;1023066;28;20046;-70
2020/12/24 01:44:41;;;;;;;1.55;1.08;;;;;;;7.42;100.00;95412.69;1022194;29;20039;-68
2020/12/24 01:45:12;;;;;;;6.47;1.60;;;;;;;7.41;100.00;95408.47;1018610;29;20039;-71
2020/12/24 01:45:42;;;;;;;3.58;1.70;;;;;;;7.42;100.00;95412.69;1018649;28;20370;-69
2020/12/24 01:46:13;;;;;;;2.65;1.40;;;;;;;7.38;100.00;95404.56;1021932;28;20074;-69
2020/12/24 01:46:43;;;;;;;1.92;1.17;;;;;;;7.41;100.00;95416.31;1018598;29;20032;-69
2020/12/24 01:47:14;;;;;;;2.13;0.93;;;;;;;7.38;100.00;95417.63;1022502;29;20030;-69
2020/12/24 01:47:45;;;;;;;3.22;1.50;;;;;;;7.30;100.00;95403.19;1022131;28;20091;-67
2020/12/24 01:48:15;;;;;;;2.53;1.23;;;;;;;7.39;100.00;95416.56;1022311;28;20552;-69
2020/12/24 01:48:45;;;;;;;1.23;1.02;;;;;;;7.36;100.00;95417.06;1025857;28;20042;-68
2020/12/24 01:49:19;;;;;;;2.42;1.30;;;;;;;7.38;100.00;95414.19;1025085;28;20031;-71
2020/12/24 01:49:50;;;;;;;3.50;0.98;;;;;;;7.37;100.00;95410.03;1021544;28;20031;-67
2020/12/24 01:50:20;;;;;;;1.85;1.05;;;;;;;7.37;100.00;95416.03;1022216;29;20266;-68
2020/12/24 01:50:51;;;;;;;1.20;1.10;;;;;;;7.29;100.00;95400.84;1022401;28;20031;-74
2020/12/24 01:51:26;;;;;;;2.35;0.90;;;;;;;7.31;100.00;95396.94;1018158;29;20038;-70
2020/12/24 01:51:56;;;;;;;3.88;0.98;;;;;;;7.38;100.00;95414.19;1019742;28;20035;-69
2020/12/24 01:52:30;;;;;;;1.98;0.95;;;;;;;7.35;100.00;95409.50;1018531;29;20282;-69
2020/12/24 01:53:00;;;;;;;2.45;1.27;;;;;;;7.28;100.00;95397.44;1022088;28;20106;-68
2020/12/24 01:53:31;;;;;;;2.30;1.08;;;;;;;7.35;100.00;95412.13;1018674;29;20564;-69
2020/12/24 01:54:03;;;;;;;2.30;1.30;;;;;;;7.35;100.00;95414.72;1014597;29;20339;-68
2020/12/24 01:54:33;;;;;;;1.67;1.00;;;;;;;7.35;100.00;95405.06;1017068;28;20024;-69
2020/12/24 01:55:09;;;;;;;2.58;0.70;;;;;;;7.35;100.00;95410.28;1014842;29;20765;-68
2020/12/24 01:55:39;;;;;;;1.77;0.85;;;;;;;7.34;100.00;95411.31;1016295;29;20055;-69
2020/12/24 01:56:10;;;;;;;2.90;1.10;;;;;;;7.33;100.00;95407.91;1014088;29;20323;-69
2020/12/24 01:56:40;;;;;;;1.15;1.02;;;;;;;7.30;100.00;95400.56;1016558;28;20028;-70
2020/12/24 01:57:11;;;;;;;1.90;0.90;;;;;;;7.33;100.00;95396.69;1022521;28;20492;-70
2020/12/24 01:57:41;;;;;;;1.20;1.00;;;;;;;7.33;100.00;95402.69;1018741;29;20028;-68
2020/12/24 01:58:12;;;;;;;2.50;1.10;;;;;;;7.36;100.00;95405.84;1014782;29;20044;-67
2020/12/24 01:58:42;;;;;;;1.73;1.05;;;;;;;7.26;100.00;95394.28;1019095;28;20411;-70
2020/12/24 01:59:16;;;;;;;1.63;1.15;;;;;;;7.31;100.00;95404.78;1018549;29;20031;-70
2020/12/24 01:59:46;;;;;;;2.83;1.00;;;;;;;7.33;100.00;95404.53;1018628;29;20840;-71
2020/12/24 02:00:17;;;;;;;1.05;0.95;;;;;;;7.32;100.00;95401.13;1022255;28;20271;-66
2020/12/24 02:00:47;;;;;;;2.22;1.35;;;;;;;7.28;100.00;95396.66;1026503;28;20112;-67
2020/12/24 02:01:18;;;;;;;1.25;1.02;;;;;;;7.28;100.00;95400.06;1022607;29;20626;-67
2020/12/24 02:01:50;;;;;;;2.80;1.08;;;;;;;7.30;100.00;95397.19;1022772;29;20050;-70
2020/12/24 02:02:21;;;;;;;3.97;1.45;;;;;;;7.23;100.00;95386.19;1010648;29;20036;-70
2020/12/24 02:02:51;;;;;;;3.75;1.40;;;;;;;7.35;100.00;95407.69;1010624;29;20277;-70
2020/12/24 02:03:22;;;;;;;4.35;1.20;;;;;;;7.32;100.00;95401.13;1014553;29;20039;-67
2020/12/24 02:03:52;;;;;;;2.10;1.55;;;;;;;7.31;100.00;95391.72;1016642;28;20040;-68
2020/12/24 02:04:22;;;;;;;2.42;0.90;;;;;;;7.28;100.00;95394.06;1026685;28;20114;-68
2020/12/24 02:04:53;;;;;;;2.10;1.00;;;;;;;7.24;100.00;95388.56;1026620;28;20034;-69
2020/12/24 02:05:23;;;;;;;3.00;1.05;;;;;;;7.31;100.00;95399.56;1025920;28;20035;-68
2020/12/24 02:05:54;;;;;;;1.35;0.98;;;;;;;7.32;100.00;95402.94;1026796;28;20481;-67
2020/12/24 02:06:25;;;;;;;1.92;1.00;;;;;;;7.28;100.00;95397.44;1022068;29;20032;-69
2020/12/24 02:06:55;;;;;;;3.35;0.75;;;;;;;7.30;100.00;95405.78;1022763;28;20113;-68
2020/12/24 02:07:25;;;;;;;1.90;1.00;;;;;;;7.26;100.00;95402.13;1022212;29;20038;-68
2020/12/24 02:07:56;;;;;;;1.52;1.30;;;;;;;7.31;100.00;95404.78;1022767;29;20031;-73
2020/12/24 02:08:27;;;;;;;2.33;0.98;;;;;;;7.23;100.00;95396.63;1022649;29;20086;-69
2020/12/24 02:08:57;;;;;;;2.38;1.15;;;;;;;7.29;100.00;95406.84;1021353;29;20058;-69
2020/12/24 02:09:28;;;;;;;2.10;1.10;;;;;;;7.28;100.00;95407.88;1018865;28;20103;-67
2020/12/24 02:09:58;;;;;;;2.03;1.05;;;;;;;7.29;100.00;95406.06;1022598;29;20481;-69
2020/12/24 02:10:29;;;;;;;1.50;1.17;;;;;;;7.28;100.00;95405.28;1018119;28;20083;-71
2020/12/24 02:11:00;;;;;;;0.73;0.73;;;;;;;7.27;100.00;95402.91;1026526;28;20034;-67
2020/12/24 02:11:30;;;;;;;1.70;0.80;;;;;;;7.06;100.00;95376.66;1022521;29;20019;-68
2020/12/24 02:12:02;;;;;;;2.78;1.02;;;;;;;7.26;100.00;95402.13;1022727;28;20035;-71
2020/12/24 02:12:32;;;;;;;4.15;1.30;;;;;;;7.25;100.00;95405.00;1022105;28;20027;-68
2020/12/24 02:13:03;;;;;;;1.55;0.90;;;;;;;7.18;100.00;95388.75;1022738;28;20811;-70
2020/12/24 02:13:33;;;;;;;2.53;0.90;;;;;;;7.19;100.00;95388.50;1022484;28;20031;-67
2020/12/24 02:14:04;;;;;;;3.90;1.10;;;;;;;7.23;100.00;95392.19;1020023;29;20027;-67
2020/12/24 02:14:35;;;;;;;2.00;1.02;;;;;;;7.27;100.00;95406.28;1011843;29;20040;-70
2020/12/24 02:15:05;;;;;;;2.42;1.00;;;;;;;7.26;100.00;95393.50;1015630;29;20039;-68
2020/12/24 02:15:35;;;;;;;1.88;0.90;;;;;;;7.24;100.00;95399.00;1014769;29;20541;-68
2020/12/24 02:16:06;;;;;;;2.72;1.00;;;;;;;7.27;100.00;95397.69;1019447;28;20042;-67
2020/12/24 02:16:37;;;;;;;1.95;0.90;;;;;;;7.23;100.00;95394.00;1027177;28;20033;-70
2020/12/24 02:17:07;;;;;;;3.25;0.90;;;;;;;7.24;100.00;95404.22;1031401;28;20500;-69
2020/12/24 02:17:38;;;;;;;1.88;1.10;;;;;;;7.22;100.00;95395.84;1026801;28;20145;-67
2020/12/24 02:18:08;;;;;;;1.05;0.95;;;;;;;7.23;100.00;95396.63;1023488;29;20050;-67
2020/12/24 02:18:39;;;;;;;1.33;1.00;;;;;;;7.21;100.00;95389.03;1023209;28;20035;-67
2020/12/24 02:19:09;;;;;;;2.63;1.05;;;;;;;7.21;100.00;95394.25;1022303;28;20046;-68
2020/12/24 02:19:40;;;;;;;1.48;0.70;;;;;;;7.21;100.00;95396.06;1031214;28;20037;-70
2020/12/24 02:20:10;;;;;;;2.85;1.13;;;;;;;7.22;100.00;95395.84;1027324;28;20026;-69
2020/12/24 02:20:44;;;;;;;1.58;1.10;;;;;;;7.22;100.00;95395.03;1022911;28;20027;-68
2020/12/24 02:21:15;;;;;;;2.45;0.98;;;;;;;7.20;100.00;95384.84;1024069;28;20545;-70
2020/12/24 02:21:45;;;;;;;6.68;1.27;;;;;;;7.12;100.00;95385.31;1024248;28;20294;-69
2020/12/24 02:22:16;;;;;;;5.53;1.20;;;;;;;7.12;100.00;95387.94;1027261;28;20815;-70
2020/12/24 02:22:47;;;;;;;1.08;0.98;;;;;;;7.19;100.00;95396.31;1015400;29;20119;-69
2020/12/24 02:23:17;;;;;;;2.17;1.10;;;;;;;7.18;100.00;95392.16;1019231;29;20287;-71
2020/12/24 02:23:48;;;;;;;0.85;0.82;;;;;;;7.18;100.00;95388.75;1019303;29;20024;-68